createdAt,value
2022-09-11T03:59:15.095Z,0.00
2022-09-11T04:00:15.050Z,0.00
2022-09-11T04:01:15.196Z,0.00
2022-09-11T04:02:13.496Z,0.00
2022-09-11T04:03:15.079Z,0.00
2022-09-11T04:04:15.065Z,0.00
2022-09-11T04:05:15.055Z,0.00
2022-09-11T04:06:15.081Z,0.00
2022-09-11T04:07:15.068Z,0.00
2022-09-11T04:08:15.078Z,0.00
2022-09-11T04:09:15.054Z,0.00
2022-09-11T04:10:15.055Z,0.00
2022-09-11T04:11:15.071Z,0.00
2022-09-11T04:12:15.057Z,0.00
2022-09-11T04:13:15.058Z,0.00
2022-09-11T04:14:15.074Z,0.00
2022-09-11T04:15:13.427Z,0.00
2022-09-11T04:16:15.129Z,0.00
2022-09-11T04:17:15.058Z,0.00
2022-09-11T04:18:15.066Z,0.00
2022-09-11T04:19:15.093Z,0.00
2022-09-11T04:20:15.073Z,0.00
2022-09-11T04:21:15.065Z,0.00
2022-09-11T04:22:15.065Z,0.00
2022-09-11T04:23:15.066Z,0.00
2022-09-11T04:24:15.067Z,0.00
2022-09-11T04:25:15.095Z,0.00
2022-09-11T04:26:15.067Z,0.00
2022-09-11T04:27:15.071Z,0.00
2022-09-11T04:28:15.066Z,0.00
2022-09-11T04:29:15.108Z,0.00
2022-09-11T04:30:15.182Z,0.00
2022-09-11T04:31:15.128Z,0.00
2022-09-11T04:32:15.075Z,0.00
2022-09-11T04:33:15.076Z,0.00
2022-09-11T04:34:15.110Z,0.00
2022-09-11T04:35:15.079Z,0.00
2022-09-11T04:36:15.092Z,0.00
2022-09-11T04:37:15.089Z,4.00
2022-09-11T04:38:15.079Z,4.00
2022-09-11T04:39:15.092Z,0.00
2022-09-11T04:40:15.118Z,4.00
2022-09-11T04:41:15.095Z,4.00
2022-09-11T04:42:15.097Z,4.00
2022-09-11T04:43:15.085Z,4.00
2022-09-11T04:44:15.092Z,4.00
2022-09-11T04:45:15.117Z,8.00
2022-09-11T04:46:13.304Z,4.00
2022-09-11T04:47:15.102Z,8.00
2022-09-11T04:48:15.085Z,12.00
2022-09-11T04:49:15.114Z,12.00
2022-09-11T04:50:15.090Z,12.00
2022-09-11T04:51:15.113Z,16.00
2022-09-11T04:52:15.103Z,16.00
2022-09-11T04:53:15.101Z,20.00
2022-09-11T04:54:15.119Z,20.00
2022-09-11T04:55:15.123Z,20.00
2022-09-11T04:56:15.120Z,20.00
2022-09-11T04:57:15.093Z,24.00
2022-09-11T04:58:15.094Z,28.00
2022-09-11T04:59:15.112Z,28.00
2022-09-11T05:00:15.113Z,32.00
2022-09-11T05:01:15.172Z,36.00
2022-09-11T05:02:15.268Z,36.00
2022-09-11T05:03:15.122Z,40.00
2022-09-11T05:04:15.146Z,44.00
2022-09-11T05:05:15.117Z,44.00
2022-09-11T05:06:15.117Z,48.00
2022-09-11T05:07:15.162Z,48.00
2022-09-11T05:08:15.101Z,52.00
2022-09-11T05:09:15.103Z,52.00
2022-09-11T05:10:15.138Z,56.00
2022-09-11T05:11:13.206Z,64.00
2022-09-11T05:12:15.117Z,68.00
2022-09-11T05:13:13.212Z,68.00
2022-09-11T05:14:13.203Z,72.00
2022-09-11T05:15:13.193Z,76.00
2022-09-11T05:16:13.216Z,84.00
2022-09-11T05:17:15.138Z,84.00
2022-09-11T05:18:13.188Z,92.00
2022-09-11T05:19:13.192Z,96.00
2022-09-11T05:20:15.134Z,100.00
2022-09-11T05:21:13.176Z,100.00
2022-09-11T05:22:15.113Z,104.00
2022-09-11T05:23:13.189Z,104.00
2022-09-11T05:24:15.114Z,108.00
2022-09-11T05:25:14.167Z,108.00
2022-09-11T05:26:15.140Z,108.00
2022-09-11T05:27:13.158Z,108.00
2022-09-11T05:28:13.177Z,108.00
2022-09-11T05:29:13.150Z,112.00
2022-09-11T05:30:15.120Z,112.00
2022-09-11T05:31:14.654Z,112.00
2022-09-11T05:32:15.143Z,108.00
2022-09-11T05:33:14.145Z,112.00
2022-09-11T05:34:15.129Z,116.00
2022-09-11T05:35:15.153Z,124.00
2022-09-11T05:36:14.633Z,136.00
2022-09-11T05:37:14.633Z,140.00
2022-09-11T05:38:13.129Z,152.00
2022-09-11T05:39:13.125Z,152.00
2022-09-11T05:40:14.696Z,152.00
2022-09-11T05:41:14.138Z,160.00
2022-09-11T05:42:13.122Z,172.00
2022-09-11T05:43:13.125Z,192.00
2022-09-11T05:44:14.671Z,204.00
2022-09-11T05:45:13.110Z,196.00
2022-09-11T05:46:14.651Z,192.00
2022-09-11T05:47:13.097Z,208.00
2022-09-11T05:48:13.100Z,220.00
2022-09-11T05:49:14.659Z,236.00
2022-09-11T05:50:14.659Z,264.00
2022-09-11T05:51:13.092Z,252.00
2022-09-11T05:52:14.644Z,228.00
2022-09-11T05:53:14.645Z,240.00
2022-09-11T05:54:14.653Z,232.00
2022-09-11T05:55:14.683Z,228.00
2022-09-11T05:56:14.664Z,248.00
2022-09-11T05:57:14.688Z,268.00
2022-09-11T05:58:14.653Z,288.00
2022-09-11T05:59:14.650Z,300.00
2022-09-11T06:00:14.641Z,308.00
2022-09-11T06:01:14.769Z,296.00
2022-09-11T06:02:14.731Z,296.00
2022-09-11T06:03:15.504Z,296.00
2022-09-11T06:04:13.061Z,292.00
2022-09-11T06:05:13.058Z,292.00
2022-09-11T06:06:13.070Z,300.00
2022-09-11T06:07:14.687Z,320.00
2022-09-11T06:08:13.041Z,312.00
2022-09-11T06:09:13.040Z,316.00
2022-09-11T06:10:13.034Z,340.00
2022-09-11T06:11:13.024Z,332.00
2022-09-11T06:12:14.674Z,332.00
2022-09-11T06:13:13.044Z,328.00
2022-09-11T06:14:13.036Z,328.00
2022-09-11T06:15:36.278Z,380.00
2022-09-11T06:16:17.826Z,432.00
2022-09-11T06:17:13.030Z,432.00
2022-09-11T06:18:13.009Z,408.00
2022-09-11T06:19:13.017Z,408.00
2022-09-11T06:20:14.677Z,388.00
2022-09-11T06:21:13.025Z,364.00
2022-09-11T06:22:14.679Z,364.00
2022-09-11T06:23:14.689Z,380.00
2022-09-11T06:24:14.668Z,388.00
2022-09-11T06:25:14.665Z,404.00
2022-09-11T06:26:14.676Z,408.00
2022-09-11T06:27:14.680Z,408.00
2022-09-11T06:28:15.675Z,404.00
2022-09-11T06:29:14.691Z,388.00
2022-09-11T06:30:14.678Z,360.00
2022-09-11T06:31:14.670Z,328.00
2022-09-11T06:32:14.706Z,336.00
2022-09-11T06:33:12.972Z,344.00
2022-09-11T06:34:14.687Z,368.00
2022-09-11T06:35:12.959Z,364.00
2022-09-11T06:36:14.189Z,356.00
2022-09-11T06:37:12.966Z,348.00
2022-09-11T06:38:14.692Z,344.00
2022-09-11T06:39:12.974Z,356.00
2022-09-11T06:40:13.010Z,360.00
2022-09-11T06:41:12.956Z,392.00
2022-09-11T06:42:12.940Z,424.00
2022-09-11T06:43:12.945Z,472.00
2022-09-11T06:44:14.694Z,480.00
2022-09-11T06:45:12.937Z,492.00
2022-09-11T06:46:14.750Z,500.00
2022-09-11T06:47:12.925Z,512.00
2022-09-11T06:48:12.930Z,500.00
2022-09-11T06:49:12.925Z,492.00
2022-09-11T06:50:14.697Z,512.00
2022-09-11T06:51:12.925Z,524.00
2022-09-11T06:52:12.915Z,552.00
2022-09-11T06:53:14.712Z,540.00
2022-09-11T06:54:14.721Z,544.00
2022-09-11T06:55:12.924Z,568.00
2022-09-11T06:56:14.703Z,580.00
2022-09-11T06:57:12.894Z,596.00
2022-09-11T06:58:14.694Z,600.00
2022-09-11T06:59:14.725Z,636.00
2022-09-11T07:00:13.893Z,696.00
2022-09-11T07:01:14.797Z,748.00
2022-09-11T07:02:13.073Z,752.00
2022-09-11T07:03:14.708Z,744.00
2022-09-11T07:04:14.728Z,716.00
2022-09-11T07:05:12.890Z,680.00
2022-09-11T07:06:14.703Z,652.00
2022-09-11T07:07:14.729Z,632.00
2022-09-11T07:08:14.734Z,652.00
2022-09-11T07:09:15.739Z,664.00
2022-09-11T07:10:14.713Z,688.00
2022-09-11T07:11:14.700Z,672.00
2022-09-11T07:12:14.719Z,660.00
2022-09-11T07:13:14.714Z,652.00
2022-09-11T07:14:14.731Z,676.00
2022-09-11T07:15:13.861Z,740.00
2022-09-11T07:16:12.893Z,776.00
2022-09-11T07:17:14.719Z,772.00
2022-09-11T07:18:12.914Z,744.00
2022-09-11T07:19:14.753Z,724.00
2022-09-11T07:20:14.716Z,744.00
2022-09-11T07:21:12.842Z,748.00
2022-09-11T07:22:12.845Z,720.00
2022-09-11T07:23:12.827Z,696.00
2022-09-11T07:24:14.724Z,692.00
2022-09-11T07:25:14.736Z,728.00
2022-09-11T07:26:14.718Z,788.00
2022-09-11T07:27:14.243Z,852.00
2022-09-11T07:28:14.718Z,928.00
2022-09-11T07:29:14.747Z,1004.00
2022-09-11T07:30:14.735Z,1060.00
2022-09-11T07:31:18.684Z,1056.00
2022-09-11T07:32:14.743Z,1032.00
2022-09-11T07:33:14.723Z,1008.00
2022-09-11T07:34:14.737Z,916.00
2022-09-11T07:35:14.722Z,816.00
2022-09-11T07:36:14.738Z,752.00
2022-09-11T07:37:14.743Z,744.00
2022-09-11T07:38:14.754Z,744.00
2022-09-11T07:39:14.790Z,760.00
2022-09-11T07:40:14.776Z,776.00
2022-09-11T07:41:14.739Z,764.00
2022-09-11T07:42:14.729Z,792.00
2022-09-11T07:43:14.741Z,792.00
2022-09-11T07:44:14.734Z,708.00
2022-09-11T07:45:14.748Z,656.00
2022-09-11T07:46:14.736Z,640.00
2022-09-11T07:47:14.831Z,652.00
2022-09-11T07:48:14.754Z,688.00
2022-09-11T07:49:14.748Z,740.00
2022-09-11T07:50:14.742Z,772.00
2022-09-11T07:51:14.761Z,752.00
2022-09-11T07:52:16.703Z,732.00
2022-09-11T07:53:12.750Z,752.00
2022-09-11T07:54:13.766Z,728.00
2022-09-11T07:55:12.795Z,712.00
2022-09-11T07:56:14.238Z,776.00
2022-09-11T07:57:14.285Z,884.00
2022-09-11T07:58:14.253Z,1168.00
2022-09-11T07:59:14.266Z,1320.00
2022-09-11T08:00:14.265Z,1368.00
2022-09-11T08:01:14.315Z,1308.00
2022-09-11T08:02:14.331Z,1256.00
2022-09-11T08:03:14.266Z,1248.00
2022-09-11T08:04:14.260Z,1216.00
2022-09-11T08:05:14.253Z,1228.00
2022-09-11T08:06:16.066Z,1244.00
2022-09-11T08:07:14.286Z,1280.00
2022-09-11T08:08:14.256Z,1352.00
2022-09-11T08:09:14.275Z,1412.00
2022-09-11T08:10:27.315Z,1436.00
2022-09-11T08:11:14.281Z,1444.00
2022-09-11T08:12:14.256Z,1444.00
2022-09-11T08:13:14.286Z,1480.00
2022-09-11T08:14:14.259Z,1548.00
2022-09-11T08:15:14.268Z,1596.00
2022-09-11T08:16:14.311Z,1564.00
2022-09-11T08:17:14.272Z,1496.00
2022-09-11T08:18:15.292Z,1368.00
2022-09-11T08:19:13.689Z,1396.00
2022-09-11T08:20:12.702Z,1556.00
2022-09-11T08:21:13.170Z,1696.00
2022-09-11T08:22:14.282Z,1836.00
2022-09-11T08:23:12.687Z,1972.00
2022-09-11T08:24:12.683Z,2036.00
2022-09-11T08:25:12.689Z,2132.00
2022-09-11T08:26:14.279Z,2188.00
2022-09-11T08:27:14.280Z,2184.00
2022-09-11T08:28:14.293Z,2016.00
2022-09-11T08:29:13.684Z,1772.00
2022-09-11T08:30:12.671Z,1588.00
2022-09-11T08:31:14.318Z,1604.00
2022-09-11T08:32:14.294Z,1708.00
2022-09-11T08:33:12.696Z,1712.00
2022-09-11T08:34:14.273Z,1600.00
2022-09-11T08:35:12.657Z,1520.00
2022-09-11T08:36:14.277Z,1408.00
2022-09-11T08:37:14.294Z,1280.00
2022-09-11T08:38:14.287Z,1188.00
2022-09-11T08:39:14.296Z,1124.00
2022-09-11T08:40:14.389Z,1088.00
2022-09-11T08:41:14.286Z,1080.00
2022-09-11T08:42:14.293Z,1084.00
2022-09-11T08:43:14.284Z,1116.00
2022-09-11T08:44:14.316Z,1144.00
2022-09-11T08:45:12.643Z,1200.00
2022-09-11T08:46:14.277Z,1220.00
2022-09-11T08:47:14.293Z,1196.00
2022-09-11T08:48:14.286Z,1164.00
2022-09-11T08:49:14.312Z,1136.00
2022-09-11T08:50:14.316Z,1092.00
2022-09-11T08:51:14.304Z,1052.00
2022-09-11T08:52:14.320Z,1048.00
2022-09-11T08:53:13.011Z,1096.00
2022-09-11T08:54:14.335Z,1180.00
2022-09-11T08:55:12.649Z,1348.00
2022-09-11T08:56:12.612Z,1600.00
2022-09-11T08:57:12.615Z,1784.00
2022-09-11T08:58:12.633Z,1808.00
2022-09-11T08:59:14.327Z,1684.00
2022-09-11T09:00:14.323Z,1608.00
2022-09-11T09:01:14.406Z,1604.00
2022-09-11T09:02:12.710Z,1536.00
2022-09-11T09:03:14.305Z,1416.00
2022-09-11T09:04:14.364Z,1348.00
2022-09-11T09:05:14.318Z,1384.00
2022-09-11T09:06:14.304Z,1432.00
2022-09-11T09:07:14.302Z,1320.00
2022-09-11T09:08:14.322Z,1176.00
2022-09-11T09:09:14.303Z,1124.00
2022-09-11T09:10:14.339Z,1160.00
2022-09-11T09:11:14.309Z,1212.00
2022-09-11T09:12:14.312Z,1104.00
2022-09-11T09:13:14.319Z,976.00
2022-09-11T09:14:14.322Z,936.00
2022-09-11T09:15:14.337Z,892.00
2022-09-11T09:16:14.320Z,888.00
2022-09-11T09:17:12.590Z,836.00
2022-09-11T09:18:12.577Z,776.00
2022-09-11T09:19:12.611Z,720.00
2022-09-11T09:20:13.828Z,680.00
2022-09-11T09:21:12.564Z,708.00
2022-09-11T09:22:12.564Z,772.00
2022-09-11T09:23:12.574Z,832.00
2022-09-11T09:24:12.564Z,900.00
2022-09-11T09:25:14.333Z,960.00
2022-09-11T09:26:12.557Z,1048.00
2022-09-11T09:27:12.552Z,1096.00
2022-09-11T09:28:12.561Z,1096.00
2022-09-11T09:29:12.609Z,1060.00
2022-09-11T09:30:14.349Z,1028.00
2022-09-11T09:31:14.388Z,1024.00
2022-09-11T09:32:14.329Z,1032.00
2022-09-11T09:33:14.352Z,1052.00
2022-09-11T09:34:14.341Z,1100.00
2022-09-11T09:35:12.549Z,1144.00
2022-09-11T09:36:13.538Z,1180.00
2022-09-11T09:37:14.343Z,1228.00
2022-09-11T09:38:12.540Z,1304.00
2022-09-11T09:39:14.331Z,1376.00
2022-09-11T09:40:14.413Z,1412.00
2022-09-11T09:41:12.537Z,1400.00
2022-09-11T09:42:14.350Z,1368.00
2022-09-11T09:43:14.335Z,1388.00
2022-09-11T09:44:15.491Z,1440.00
2022-09-11T09:45:14.366Z,1448.00
2022-09-11T09:46:12.577Z,1388.00
2022-09-11T09:47:14.358Z,1308.00
2022-09-11T09:48:12.514Z,1252.00
2022-09-11T09:49:14.382Z,1304.00
2022-09-11T09:50:12.519Z,1448.00
2022-09-11T09:51:12.511Z,1548.00
2022-09-11T09:52:14.366Z,1600.00
2022-09-11T09:53:12.501Z,1636.00
2022-09-11T09:54:14.368Z,1636.00
2022-09-11T09:55:14.357Z,1608.00
2022-09-11T09:56:12.512Z,1588.00
2022-09-11T09:57:12.497Z,1636.00
2022-09-11T09:58:12.501Z,1728.00
2022-09-11T09:59:12.501Z,1800.00
2022-09-11T10:00:14.367Z,1776.00
2022-09-11T10:01:16.369Z,1660.00
2022-09-11T10:02:14.396Z,1532.00
2022-09-11T10:13:25.483Z,1292.00
2022-09-11T10:14:49.956Z,1536.00
2022-09-11T10:15:25.440Z,1808.00
2022-09-11T10:16:25.428Z,2048.00
2022-09-11T10:17:23.813Z,2200.00
2022-09-11T10:18:25.447Z,2264.00
2022-09-11T10:19:23.800Z,2288.00
2022-09-11T10:20:23.803Z,2316.00
2022-09-11T10:21:25.452Z,2396.00
2022-09-11T10:22:23.804Z,2512.00
2022-09-11T10:23:23.806Z,2652.00
2022-09-11T10:24:23.795Z,2772.00
2022-09-11T10:25:25.447Z,2856.00
2022-09-11T10:26:23.778Z,2884.00
2022-09-11T10:27:27.236Z,2892.00
2022-09-11T10:28:23.789Z,2956.00
2022-09-11T10:29:23.783Z,3024.00
2022-09-11T10:30:25.464Z,3088.00
2022-09-11T10:31:23.827Z,3212.00
2022-09-11T10:32:25.455Z,3336.00
2022-09-11T10:33:25.474Z,3352.00
2022-09-11T10:34:25.467Z,3304.00
2022-09-11T10:35:25.441Z,3192.00
2022-09-11T10:36:25.466Z,3116.00
2022-09-11T10:37:25.442Z,3120.00
2022-09-11T10:38:25.462Z,3160.00
2022-09-11T10:39:25.478Z,3284.00
2022-09-11T10:40:23.766Z,3356.00
2022-09-11T10:41:25.468Z,3492.00
2022-09-11T10:42:25.487Z,3804.00
2022-09-11T10:43:25.463Z,4392.00
2022-09-11T10:44:26.485Z,4940.00
2022-09-11T10:45:25.455Z,5016.00
2022-09-11T10:46:25.460Z,4852.00
2022-09-11T10:47:25.452Z,4564.00
2022-09-11T10:48:25.477Z,4524.00
2022-09-11T10:49:25.457Z,4880.00
2022-09-11T10:50:25.481Z,5652.00
2022-09-11T10:51:23.813Z,6536.00
2022-09-11T10:52:23.750Z,6504.00
2022-09-11T10:53:23.808Z,5336.00
2022-09-11T10:54:25.470Z,4692.00
2022-09-11T10:55:25.515Z,4484.00
2022-09-11T10:56:23.743Z,4728.00
2022-09-11T10:57:23.752Z,5116.00
2022-09-11T10:58:23.745Z,5312.00
2022-09-11T10:59:23.754Z,5600.00
2022-09-11T11:00:25.496Z,5744.00
2022-09-11T11:01:25.521Z,6264.00
2022-09-11T11:02:23.760Z,6968.00
2022-09-11T11:03:23.763Z,6848.00
2022-09-11T11:04:25.483Z,5888.00
2022-09-11T11:05:23.741Z,7272.00
2022-09-11T11:06:23.757Z,7588.00
2022-09-11T11:07:25.497Z,8116.00
2022-09-11T11:08:23.764Z,7868.00
2022-09-11T11:09:28.991Z,7692.00
2022-09-11T11:10:23.746Z,7804.00
2022-09-11T11:11:25.476Z,7248.00
2022-09-11T11:12:23.741Z,7876.00
2022-09-11T11:13:25.491Z,7220.00
2022-09-11T11:14:25.490Z,7740.00
2022-09-11T11:15:28.156Z,7588.00
2022-09-11T11:16:25.496Z,6624.00
2022-09-11T11:17:23.752Z,7884.00
2022-09-11T11:18:25.525Z,7620.00
2022-09-11T11:19:25.005Z,7560.00
2022-09-11T11:20:25.489Z,6856.00
2022-09-11T11:21:25.492Z,5996.00
2022-09-11T11:22:25.494Z,5660.00
2022-09-11T11:23:25.524Z,7552.00
2022-09-11T11:24:25.502Z,7096.00
2022-09-11T11:25:25.504Z,7512.00
2022-09-11T11:26:25.503Z,7956.00
2022-09-11T11:27:25.497Z,8592.00
2022-09-11T11:28:25.504Z,8988.00
2022-09-11T11:29:25.532Z,8952.00
2022-09-11T11:30:23.776Z,8732.00
2022-09-11T11:31:24.819Z,8852.00
2022-09-11T11:32:23.793Z,7604.00
2022-09-11T11:33:25.504Z,8936.00
2022-09-11T11:34:25.512Z,6528.00
2022-09-11T11:35:23.794Z,7056.00
2022-09-11T11:36:25.504Z,8716.00
2022-09-11T11:37:25.506Z,7004.00
2022-09-11T11:38:25.505Z,6824.00
2022-09-11T11:39:25.521Z,8108.00
2022-09-11T11:40:25.520Z,8828.00
2022-09-11T11:41:25.558Z,9088.00
2022-09-11T11:42:25.580Z,9252.00
2022-09-11T11:43:25.530Z,9016.00
2022-09-11T11:44:23.826Z,8732.00
2022-09-11T11:45:25.525Z,7472.00
2022-09-11T11:46:25.514Z,6512.00
2022-09-11T11:47:25.522Z,4980.00
2022-09-11T11:48:25.528Z,4964.00
2022-09-11T11:49:25.534Z,5624.00
2022-09-11T11:50:28.599Z,7628.00
2022-09-11T11:51:25.524Z,8684.00
2022-09-11T11:52:25.523Z,9172.00
2022-09-11T11:53:25.528Z,9212.00
2022-09-11T11:54:25.527Z,9236.00
2022-09-11T11:55:25.542Z,9524.00
2022-09-11T11:56:25.524Z,6820.00
2022-09-11T11:57:25.550Z,7708.00
2022-09-11T11:58:25.548Z,10016.00
2022-09-11T11:59:25.529Z,9528.00
2022-09-11T12:00:25.566Z,9956.00
2022-09-11T12:01:25.539Z,9924.00
2022-09-11T12:02:25.545Z,9996.00
2022-09-11T12:03:25.631Z,6608.00
2022-09-11T12:04:23.920Z,9972.00
2022-09-11T12:05:25.586Z,9520.00
2022-09-11T12:06:23.958Z,9696.00
2022-09-11T12:07:23.926Z,9232.00
2022-09-11T12:08:25.550Z,9548.00
2022-09-11T12:09:25.552Z,7132.00
2022-09-11T12:10:25.557Z,4876.00
2022-09-11T12:11:25.556Z,8744.00
2022-09-11T12:12:25.556Z,9632.00
2022-09-11T12:13:25.545Z,9692.00
2022-09-11T12:14:25.559Z,9684.00
2022-09-11T12:15:25.556Z,9568.00
2022-09-11T12:16:25.621Z,9904.00
2022-09-11T12:17:25.569Z,10268.00
2022-09-11T12:18:25.557Z,10300.00
2022-09-11T12:19:26.010Z,10484.00
2022-09-11T12:20:25.580Z,10024.00
2022-09-11T12:21:25.547Z,4900.00
2022-09-11T12:22:25.578Z,4052.00
2022-09-11T12:23:25.553Z,4248.00
2022-09-11T12:24:25.568Z,4756.00
2022-09-11T12:25:25.588Z,8444.00
2022-09-11T12:26:25.575Z,8100.00
2022-09-11T12:27:25.581Z,10448.00
2022-09-11T12:28:25.583Z,10504.00
2022-09-11T12:29:25.565Z,10772.00
2022-09-11T12:30:25.586Z,11588.00
2022-09-11T12:31:25.604Z,7084.00
2022-09-11T12:32:26.125Z,6280.00
2022-09-11T12:33:25.577Z,10648.00
2022-09-11T12:34:25.566Z,7636.00
2022-09-11T12:35:25.606Z,11876.00
2022-09-11T12:36:25.576Z,11520.00
2022-09-11T12:37:24.069Z,11724.00
2022-09-11T12:38:24.079Z,12048.00
2022-09-11T12:39:24.080Z,11880.00
2022-09-11T12:40:25.607Z,11692.00
2022-09-11T12:41:24.093Z,11984.00
2022-09-11T12:42:26.108Z,12376.00
2022-09-11T12:43:25.127Z,12564.00
2022-09-11T12:44:24.115Z,13108.00
2022-09-11T12:45:26.142Z,12296.00
2022-09-11T12:46:25.146Z,12432.00
2022-09-11T12:47:26.100Z,7968.00
2022-09-11T12:48:24.136Z,5828.00
2022-09-11T12:49:26.099Z,6504.00
2022-09-11T12:50:24.146Z,11656.00
2022-09-11T12:51:24.160Z,6116.00
2022-09-11T12:52:24.213Z,5496.00
2022-09-11T12:53:26.107Z,6020.00
2022-09-11T12:54:24.172Z,5616.00
2022-09-11T12:55:26.107Z,12880.00
2022-09-11T12:56:26.167Z,6008.00
2022-09-11T12:57:26.149Z,5816.00
2022-09-11T12:58:26.113Z,6000.00
2022-09-11T12:59:26.111Z,13844.00
2022-09-11T13:00:26.109Z,14552.00
2022-09-11T13:01:26.243Z,17316.00
2022-09-11T13:02:26.199Z,32224.00
2022-09-11T13:03:26.103Z,50720.00
2022-09-11T13:04:26.135Z,46592.00
2022-09-11T13:05:26.144Z,33088.00
2022-09-11T13:06:26.106Z,23328.00
2022-09-11T13:07:24.288Z,17076.00
2022-09-11T13:08:24.271Z,15456.00
2022-09-11T13:09:24.263Z,15540.00
2022-09-11T13:10:26.175Z,15972.00
2022-09-11T13:11:26.116Z,16624.00
2022-09-11T13:12:26.126Z,8516.00
2022-09-11T13:13:26.114Z,8888.00
2022-09-11T13:14:26.116Z,9088.00
2022-09-11T13:15:26.140Z,14468.00
2022-09-11T13:16:26.118Z,15540.00
2022-09-11T13:17:26.155Z,15488.00
2022-09-11T13:18:26.132Z,17888.00
2022-09-11T13:19:26.136Z,24832.00
2022-09-11T13:20:26.168Z,37760.00
2022-09-11T13:21:26.524Z,25696.00
2022-09-11T13:22:26.156Z,26304.00
2022-09-11T13:23:26.141Z,7604.00
2022-09-11T13:24:26.155Z,7888.00
2022-09-11T13:25:26.130Z,12404.00
2022-09-11T13:26:24.372Z,8724.00
2022-09-11T13:27:26.132Z,45024.00
2022-09-11T13:28:27.398Z,11048.00
2022-09-11T13:29:26.168Z,38880.00
2022-09-11T13:30:26.135Z,48128.00
2022-09-11T13:31:26.176Z,43008.00
2022-09-11T13:32:25.471Z,40672.00
2022-09-11T13:33:24.409Z,19936.00
2022-09-11T13:34:24.422Z,36416.00
2022-09-11T13:35:24.423Z,41888.00
2022-09-11T13:36:26.159Z,41920.00
2022-09-11T13:37:26.157Z,50848.00
2022-09-11T13:38:24.455Z,49952.00
2022-09-11T13:39:24.463Z,49696.00
2022-09-11T13:40:24.473Z,49664.00
2022-09-11T13:41:26.170Z,50240.00
2022-09-11T13:42:26.149Z,50944.00
2022-09-11T13:43:26.154Z,8292.00
2022-09-11T13:44:26.154Z,7304.00
2022-09-11T13:45:24.535Z,8012.00
2022-09-11T13:46:26.186Z,46304.00
2022-09-11T13:47:26.158Z,48256.00
2022-09-11T13:48:24.508Z,42528.00
2022-09-11T13:49:26.177Z,12308.00
2022-09-11T13:50:26.171Z,12196.00
2022-09-11T13:51:26.175Z,10160.00
2022-09-11T13:52:26.163Z,40192.00
2022-09-11T13:53:26.166Z,10196.00
2022-09-11T13:54:26.690Z,9600.00
2022-09-11T13:55:26.169Z,10856.00
2022-09-11T13:56:26.170Z,46208.00
2022-09-11T13:57:26.175Z,49600.00
2022-09-11T13:58:24.574Z,52992.00
2022-09-11T13:59:26.187Z,54528.00
2022-09-11T14:00:24.598Z,53824.00
2022-09-11T14:01:24.607Z,53568.00
2022-09-11T14:02:24.643Z,52896.00
2022-09-11T14:03:26.197Z,54080.00
2022-09-11T14:04:24.617Z,54496.00
2022-09-11T14:05:24.632Z,52288.00
2022-09-11T14:06:24.644Z,45568.00
2022-09-11T14:07:26.192Z,28416.00
2022-09-11T14:08:25.146Z,21984.00
2022-09-11T14:09:24.662Z,37216.00
2022-09-11T14:10:24.660Z,34688.00
2022-09-11T14:11:24.660Z,22752.00
2022-09-11T14:12:26.207Z,23744.00
2022-09-11T14:13:24.676Z,8612.00
2022-09-11T14:14:24.704Z,4772.00
2022-09-11T14:15:24.720Z,3908.00
2022-09-11T14:16:26.248Z,3368.00
2022-09-11T14:17:24.700Z,2964.00
2022-09-11T14:18:26.214Z,2664.00
2022-09-11T14:19:24.717Z,2448.00
2022-09-11T14:20:25.732Z,2196.00
2022-09-11T14:21:26.714Z,2008.00
2022-09-11T14:22:25.769Z,1928.00
2022-09-11T14:23:26.726Z,1948.00
2022-09-11T14:24:24.749Z,2076.00
2022-09-11T14:25:26.714Z,2296.00
2022-09-11T14:26:24.763Z,4036.00
2022-09-11T14:27:26.722Z,2820.00
2022-09-11T14:28:24.781Z,3124.00
2022-09-11T14:29:26.718Z,3332.00
2022-09-11T14:30:24.772Z,3380.00
2022-09-11T14:31:26.723Z,3320.00
2022-09-11T14:32:24.781Z,3256.00
2022-09-11T14:33:24.790Z,3396.00
2022-09-11T14:34:26.836Z,3776.00
2022-09-11T14:35:24.805Z,4204.00
2022-09-11T14:36:26.720Z,5144.00
2022-09-11T14:37:26.759Z,12884.00
2022-09-11T14:38:24.813Z,7624.00
2022-09-11T14:39:26.750Z,7856.00
2022-09-11T14:40:24.817Z,7880.00
2022-09-11T14:41:24.837Z,6544.00
2022-09-11T14:42:26.729Z,5968.00
2022-09-11T14:43:26.748Z,5568.00
2022-09-11T14:44:26.736Z,5644.00
2022-09-11T14:45:26.725Z,5776.00
2022-09-11T14:46:26.796Z,7744.00
2022-09-11T14:47:26.771Z,33600.00
2022-09-11T14:48:26.729Z,27200.00
2022-09-11T14:49:26.740Z,23200.00
2022-09-11T14:50:26.749Z,21824.00
2022-09-11T14:51:26.758Z,10908.00
2022-09-11T14:52:26.731Z,8008.00
2022-09-11T14:53:26.749Z,32064.00
2022-09-11T14:54:26.742Z,30400.00
2022-09-11T14:55:26.733Z,28992.00
2022-09-11T14:56:26.731Z,29440.00
2022-09-11T14:57:26.810Z,28480.00
2022-09-11T14:58:26.767Z,28800.00
2022-09-11T14:59:26.758Z,28864.00
2022-09-11T15:00:26.754Z,30304.00
2022-09-11T15:01:26.811Z,31904.00
2022-09-11T15:02:26.759Z,31392.00
2022-09-11T15:03:26.798Z,32064.00
2022-09-11T15:04:26.754Z,32384.00
2022-09-11T15:05:26.769Z,30432.00
2022-09-11T15:06:26.786Z,29984.00
2022-09-11T15:07:26.274Z,29504.00
2022-09-11T15:08:26.777Z,27584.00
2022-09-11T15:09:24.935Z,26976.00
2022-09-11T15:10:24.917Z,26464.00
2022-09-11T15:11:24.920Z,26144.00
2022-09-11T15:12:26.771Z,26176.00
2022-09-11T15:13:26.292Z,26976.00
2022-09-11T15:14:51.835Z,27872.00
2022-09-11T15:15:26.777Z,27776.00
2022-09-11T15:16:24.941Z,25120.00
2022-09-11T15:17:26.763Z,21632.00
2022-09-11T15:18:26.778Z,19424.00
2022-09-11T15:19:26.767Z,19328.00
2022-09-11T15:20:26.827Z,20000.00
2022-09-11T15:21:26.838Z,18624.00
2022-09-11T15:22:26.770Z,18976.00
2022-09-11T15:23:26.817Z,20416.00
2022-09-11T15:24:26.800Z,19072.00
2022-09-11T15:25:26.804Z,11616.00
2022-09-11T15:26:26.774Z,5752.00
2022-09-11T15:27:26.772Z,5528.00
2022-09-11T15:28:26.786Z,5412.00
2022-09-11T15:29:31.215Z,5300.00
2022-09-11T15:30:26.778Z,5188.00
2022-09-11T15:31:26.848Z,5036.00
2022-09-11T15:32:26.781Z,4932.00
2022-09-11T15:33:26.793Z,4808.00
2022-09-11T15:34:26.831Z,4680.00
2022-09-11T15:35:29.572Z,4520.00
2022-09-11T15:36:26.830Z,4388.00
2022-09-11T15:37:26.794Z,4268.00
2022-09-11T15:38:26.787Z,4160.00
2022-09-11T15:39:26.789Z,4040.00
2022-09-11T15:40:26.832Z,3820.00
2022-09-11T15:41:26.789Z,3672.00
2022-09-11T15:42:26.788Z,3644.00
2022-09-11T15:43:26.798Z,3720.00
2022-09-11T15:44:26.878Z,3868.00
2022-09-11T15:45:26.899Z,4000.00
2022-09-11T15:46:26.819Z,4044.00
2022-09-11T15:47:25.069Z,3972.00
2022-09-11T15:48:25.065Z,3888.00
2022-09-11T15:49:26.829Z,3788.00
2022-09-11T15:50:25.077Z,3696.00
2022-09-11T15:51:25.089Z,3648.00
2022-09-11T15:52:25.090Z,3628.00
2022-09-11T15:53:26.816Z,3612.00
2022-09-11T15:54:26.836Z,3596.00
2022-09-11T15:55:25.089Z,3576.00
2022-09-11T15:56:26.827Z,3544.00
2022-09-11T15:57:25.106Z,3480.00
2022-09-11T15:58:26.805Z,3408.00
2022-09-11T15:59:26.827Z,3328.00
2022-09-11T16:00:25.094Z,3264.00
2022-09-11T16:12:47.962Z,2424.00
2022-09-11T16:13:47.917Z,2396.00
2022-09-11T16:14:47.922Z,2352.00
2022-09-11T16:15:47.948Z,2320.00
2022-09-11T16:16:46.388Z,2296.00
2022-09-11T16:17:47.941Z,2244.00
2022-09-11T16:18:46.366Z,2192.00
2022-09-11T16:19:46.375Z,2124.00
2022-09-11T16:20:46.370Z,2104.00
2022-09-11T16:21:46.394Z,2060.00
2022-09-11T16:22:47.940Z,2012.00
2022-09-11T16:23:51.162Z,1960.00
2022-09-11T16:24:47.952Z,1920.00
2022-09-11T16:25:46.368Z,1860.00
2022-09-11T16:26:47.942Z,1796.00
2022-09-11T16:27:46.385Z,1728.00
2022-09-11T16:28:46.392Z,1672.00
2022-09-11T16:30:51.190Z,1596.00
2022-09-11T16:31:46.383Z,1556.00
2022-09-11T16:32:46.381Z,1508.00
2022-09-11T16:33:46.398Z,1492.00
2022-09-11T16:34:46.377Z,1472.00